sensor_id;sensor_type;location;lat;lon;timestamp;pressure;altitude;pressure_sealevel;temperature;humidity
8059;BME280;4072;42.668;23.396;2023-04-27T00:02:25;94779.72;;;9.90;62.57
8059;BME280;4072;42.668;23.396;2023-04-27T00:04:53;94763.34;;;9.66;62.89
8059;BME280;4072;42.668;23.396;2023-04-27T00:07:22;94778.63;;;9.60;62.97
8059;BME280;4072;42.668;23.396;2023-04-27T00:09:52;94781.63;;;9.62;63.62
8059;BME280;4072;42.668;23.396;2023-04-27T00:12:21;94787.91;;;9.59;63.15
8059;BME280;4072;42.668;23.396;2023-04-27T00:14:49;94774.72;;;9.61;62.65
8059;BME280;4072;42.668;23.396;2023-04-27T00:17:19;94791.19;;;9.45;62.69
8059;BME280;4072;42.668;23.396;2023-04-27T00:19:47;94799.59;;;9.47;63.01
8059;BME280;4072;42.668;23.396;2023-04-27T00:22:15;94785.50;;;9.43;62.69
8059;BME280;4072;42.668;23.396;2023-04-27T00:24:44;94790.28;;;9.48;62.66
8059;BME280;4072;42.668;23.396;2023-04-27T00:27:12;94788.19;;;9.52;62.78
8059;BME280;4072;42.668;23.396;2023-04-27T00:29:40;94779.16;;;9.46;62.78
8059;BME280;4072;42.668;23.396;2023-04-27T00:32:09;94787.09;;;9.41;62.95
8059;BME280;4072;42.668;23.396;2023-04-27T00:34:39;94791.13;;;9.27;63.44
8059;BME280;4072;42.668;23.396;2023-04-27T00:37:08;94794.16;;;9.38;63.43
8059;BME280;4072;42.668;23.396;2023-04-27T00:39:37;94794.41;;;9.22;63.27
8059;BME280;4072;42.668;23.396;2023-04-27T00:42:05;94786.47;;;9.28;63.46
8059;BME280;4072;42.668;23.396;2023-04-27T00:44:37;94798.88;;;9.16;63.73
8059;BME280;4072;42.668;23.396;2023-04-27T00:47:05;94796.50;;;9.18;63.98
8059;BME280;4072;42.668;23.396;2023-04-27T00:49:34;94797.91;;;9.01;63.99
8059;BME280;4072;42.668;23.396;2023-04-27T00:52:04;94801.41;;;8.89;64.01
8059;BME280;4072;42.668;23.396;2023-04-27T00:54:32;94806.19;;;8.85;64.58
8059;BME280;4072;42.668;23.396;2023-04-27T00:57:00;94792.69;;;8.76;64.81
8059;BME280;4072;42.668;23.396;2023-04-27T00:59:29;94799.94;;;8.66;64.75
8059;BME280;4072;42.668;23.396;2023-04-27T01:01:58;94798.44;;;8.65;65.42
8059;BME280;4072;42.668;23.396;2023-04-27T01:04:28;94805.31;;;8.66;66.03
8059;BME280;4072;42.668;23.396;2023-04-27T01:06:58;94808.16;;;8.63;65.64
8059;BME280;4072;42.668;23.396;2023-04-27T01:09:29;94807.34;;;8.53;66.41
8059;BME280;4072;42.668;23.396;2023-04-27T01:11:57;94804.72;;;8.41;66.64
8059;BME280;4072;42.668;23.396;2023-04-27T01:14:26;94812.72;;;8.32;67.09
8059;BME280;4072;42.668;23.396;2023-04-27T01:16:54;94813.34;;;8.36;67.22
8059;BME280;4072;42.668;23.396;2023-04-27T01:19:22;94812.09;;;8.28;67.80
8059;BME280;4072;42.668;23.396;2023-04-27T01:21:50;94812.97;;;8.25;68.03
8059;BME280;4072;42.668;23.396;2023-04-27T01:24:20;94816.63;;;8.31;67.94
8059;BME280;4072;42.668;23.396;2023-04-27T01:26:48;94803.06;;;8.22;68.42
8059;BME280;4072;42.668;23.396;2023-04-27T01:29:19;94816.94;;;8.20;68.72
8059;BME280;4072;42.668;23.396;2023-04-27T01:31:47;94814.38;;;8.17;68.42
8059;BME280;4072;42.668;23.396;2023-04-27T01:34:16;94825.91;;;8.30;68.38
8059;BME280;4072;42.668;23.396;2023-04-27T01:36:44;94832.16;;;8.27;67.56
8059;BME280;4072;42.668;23.396;2023-04-27T01:39:12;94833.47;;;8.10;68.45
8059;BME280;4072;42.668;23.396;2023-04-27T01:41:42;94819.91;;;8.01;68.91
8059;BME280;4072;42.668;23.396;2023-04-27T01:44:10;94828.09;;;8.10;68.58
8059;BME280;4072;42.668;23.396;2023-04-27T01:46:38;94828.94;;;8.07;68.73
8059;BME280;4072;42.668;23.396;2023-04-27T01:49:07;94828.16;;;7.85;68.96
8059;BME280;4072;42.668;23.396;2023-04-27T01:51:35;94824.03;;;7.93;69.38
8059;BME280;4072;42.668;23.396;2023-04-27T01:54:03;94832.50;;;8.04;69.03
8059;BME280;4072;42.668;23.396;2023-04-27T01:56:32;94829.19;;;8.00;68.78
8059;BME280;4072;42.668;23.396;2023-04-27T01:59:01;94836.72;;;8.05;68.97
8059;BME280;4072;42.668;23.396;2023-04-27T02:01:29;94831.00;;;8.03;69.04
8059;BME280;4072;42.668;23.396;2023-04-27T02:03:58;94822.94;;;8.03;68.52
8059;BME280;4072;42.668;23.396;2023-04-27T02:06:26;94826.19;;;7.98;68.41
8059;BME280;4072;42.668;23.396;2023-04-27T02:08:54;94821.03;;;7.91;69.23
8059;BME280;4072;42.668;23.396;2023-04-27T02:11:22;94830.91;;;7.94;69.32
8059;BME280;4072;42.668;23.396;2023-04-27T02:13:52;94826.09;;;7.89;69.09
8059;BME280;4072;42.668;23.396;2023-04-27T02:16:22;94775.00;;;7.51;69.50
8059;BME280;4072;42.668;23.396;2023-04-27T02:18:50;94839.22;;;7.87;69.11
8059;BME280;4072;42.668;23.396;2023-04-27T02:21:19;94832.50;;;7.70;68.91
8059;BME280;4072;42.668;23.396;2023-04-27T02:23:48;94831.91;;;7.87;69.34
8059;BME280;4072;42.668;23.396;2023-04-27T02:26:16;94766.53;;;7.40;69.13
8059;BME280;4072;42.668;23.396;2023-04-27T02:28:45;94832.25;;;7.77;68.99
8059;BME280;4072;42.668;23.396;2023-04-27T02:31:14;94838.50;;;7.74;69.19
8059;BME280;4072;42.668;23.396;2023-04-27T02:33:43;94836.69;;;7.58;69.54
8059;BME280;4072;42.668;23.396;2023-04-27T02:36:11;94823.44;;;7.64;70.00
8059;BME280;4072;42.668;23.396;2023-04-27T02:38:40;94832.06;;;7.59;69.45
8059;BME280;4072;42.668;23.396;2023-04-27T02:41:08;94836.91;;;7.51;69.90
8059;BME280;4072;42.668;23.396;2023-04-27T02:43:36;94834.66;;;7.50;70.38
8059;BME280;4072;42.668;23.396;2023-04-27T02:46:05;94840.00;;;7.75;69.50
8059;BME280;4072;42.668;23.396;2023-04-27T02:48:33;94832.06;;;7.59;69.31
8059;BME280;4072;42.668;23.396;2023-04-27T02:51:04;94845.75;;;7.64;69.18
8059;BME280;4072;42.668;23.396;2023-04-27T02:53:33;94838.84;;;7.51;69.21
8059;BME280;4072;42.668;23.396;2023-04-27T02:56:02;94849.09;;;7.56;68.97
8059;BME280;4072;42.668;23.396;2023-04-27T02:58:30;94836.91;;;7.64;68.54
8059;BME280;4072;42.668;23.396;2023-04-27T03:00:59;94842.38;;;7.73;68.57
8059;BME280;4072;42.668;23.396;2023-04-27T03:03:32;94850.59;;;7.57;69.14
8059;BME280;4072;42.668;23.396;2023-04-27T03:06:00;94856.59;;;7.61;68.62
8059;BME280;4072;42.668;23.396;2023-04-27T03:08:31;94848.22;;;7.59;68.07
8059;BME280;4072;42.668;23.396;2023-04-27T03:10:59;94857.91;;;7.56;68.02
8059;BME280;4072;42.668;23.396;2023-04-27T03:13:28;94859.00;;;7.59;68.15
8059;BME280;4072;42.668;23.396;2023-04-27T03:15:56;94863.50;;;7.62;68.03
8059;BME280;4072;42.668;23.396;2023-04-27T03:18:24;94854.25;;;7.50;68.07
8059;BME280;4072;42.668;23.396;2023-04-27T03:20:52;94869.00;;;7.58;68.30
8059;BME280;4072;42.668;23.396;2023-04-27T03:23:20;94872.44;;;7.59;68.66
8059;BME280;4072;42.668;23.396;2023-04-27T03:25:50;94862.13;;;7.57;68.48
8059;BME280;4072;42.668;23.396;2023-04-27T03:28:19;94871.25;;;7.60;68.17
8059;BME280;4072;42.668;23.396;2023-04-27T03:30:47;94876.09;;;7.52;68.58
8059;BME280;4072;42.668;23.396;2023-04-27T03:33:15;94855.75;;;7.39;68.60
8059;BME280;4072;42.668;23.396;2023-04-27T03:35:44;94876.94;;;7.49;68.87
8059;BME280;4072;42.668;23.396;2023-04-27T03:38:13;94877.16;;;7.55;69.05
8059;BME280;4072;42.668;23.396;2023-04-27T03:40:41;94882.03;;;7.60;68.06
8059;BME280;4072;42.668;23.396;2023-04-27T03:43:11;94874.25;;;7.62;68.05
8059;BME280;4072;42.668;23.396;2023-04-27T03:45:39;94882.34;;;7.49;68.02
8059;BME280;4072;42.668;23.396;2023-04-27T03:48:07;94868.34;;;7.42;68.30
8059;BME280;4072;42.668;23.396;2023-04-27T03:50:35;94879.44;;;7.44;68.59
8059;BME280;4072;42.668;23.396;2023-04-27T03:53:03;94877.28;;;7.51;68.78
8059;BME280;4072;42.668;23.396;2023-04-27T03:55:31;94876.63;;;7.35;68.43
8059;BME280;4072;42.668;23.396;2023-04-27T03:57:59;94850.59;;;7.19;68.66
8059;BME280;4072;42.668;23.396;2023-04-27T04:00:29;94870.28;;;7.29;69.28
8059;BME280;4072;42.668;23.396;2023-04-27T04:02:57;94904.28;;;7.35;68.85
8059;BME280;4072;42.668;23.396;2023-04-27T04:05:25;94914.97;;;7.64;69.64
8059;BME280;4072;42.668;23.396;2023-04-27T04:07:53;94914.31;;;7.60;68.03
8059;BME280;4072;42.668;23.396;2023-04-27T04:10:22;94912.91;;;7.68;67.50
8059;BME280;4072;42.668;23.396;2023-04-27T04:12:50;94918.63;;;7.70;67.39
8059;BME280;4072;42.668;23.396;2023-04-27T04:15:18;94917.88;;;7.69;67.18
8059;BME280;4072;42.668;23.396;2023-04-27T04:17:48;94923.91;;;7.61;67.59
8059;BME280;4072;42.668;23.396;2023-04-27T04:20:18;94925.09;;;7.60;67.46
8059;BME280;4072;42.668;23.396;2023-04-27T04:22:46;94947.16;;;7.55;67.67
8059;BME280;4072;42.668;23.396;2023-04-27T04:25:14;94933.81;;;7.64;67.58
8059;BME280;4072;42.668;23.396;2023-04-27T04:27:42;94892.56;;;7.42;67.11
8059;BME280;4072;42.668;23.396;2023-04-27T04:30:11;94951.81;;;7.92;66.66
8059;BME280;4072;42.668;23.396;2023-04-27T04:32:40;94928.97;;;7.84;66.00
8059;BME280;4072;42.668;23.396;2023-04-27T04:35:12;94949.19;;;8.01;66.05
8059;BME280;4072;42.668;23.396;2023-04-27T04:37:41;94906.88;;;7.76;64.92
8059;BME280;4072;42.668;23.396;2023-04-27T04:40:10;94942.53;;;7.93;65.06
8059;BME280;4072;42.668;23.396;2023-04-27T04:42:38;94944.03;;;7.94;65.16
8059;BME280;4072;42.668;23.396;2023-04-27T04:45:07;94952.66;;;7.89;65.39
8059;BME280;4072;42.668;23.396;2023-04-27T04:47:36;94946.84;;;7.78;65.14
8059;BME280;4072;42.668;23.396;2023-04-27T04:50:06;94960.63;;;7.80;65.18
8059;BME280;4072;42.668;23.396;2023-04-27T04:52:37;94947.91;;;7.93;64.34
8059;BME280;4072;42.668;23.396;2023-04-27T04:55:05;94959.13;;;8.04;63.96
8059;BME280;4072;42.668;23.396;2023-04-27T04:57:34;94963.41;;;8.14;63.89
8059;BME280;4072;42.668;23.396;2023-04-27T05:00:03;94962.25;;;8.27;63.15
8059;BME280;4072;42.668;23.396;2023-04-27T05:02:37;94967.94;;;8.42;62.63
8059;BME280;4072;42.668;23.396;2023-04-27T05:05:06;94932.41;;;7.97;63.20
8059;BME280;4072;42.668;23.396;2023-04-27T05:07:36;94980.00;;;8.50;62.46
8059;BME280;4072;42.668;23.396;2023-04-27T05:10:05;94975.81;;;8.83;61.65
8059;BME280;4072;42.668;23.396;2023-04-27T05:12:35;94990.13;;;8.92;60.41
8059;BME280;4072;42.668;23.396;2023-04-27T05:15:03;94990.88;;;8.93;60.13
8059;BME280;4072;42.668;23.396;2023-04-27T05:17:32;94980.69;;;9.31;58.88
8059;BME280;4072;42.668;23.396;2023-04-27T05:20:00;94988.88;;;9.06;59.83
8059;BME280;4072;42.668;23.396;2023-04-27T05:22:30;94981.84;;;9.08;58.97
8059;BME280;4072;42.668;23.396;2023-04-27T05:25:00;94986.38;;;9.12;58.87
8059;BME280;4072;42.668;23.396;2023-04-27T05:27:30;94985.41;;;9.18;59.30
8059;BME280;4072;42.668;23.396;2023-04-27T05:29:58;94981.00;;;9.33;59.50
8059;BME280;4072;42.668;23.396;2023-04-27T05:32:26;94982.25;;;9.41;58.19
8059;BME280;4072;42.668;23.396;2023-04-27T05:34:54;94987.91;;;9.34;58.58
8059;BME280;4072;42.668;23.396;2023-04-27T05:37:22;94988.66;;;9.35;58.85
8059;BME280;4072;42.668;23.396;2023-04-27T05:39:51;94991.53;;;9.19;59.19
8059;BME280;4072;42.668;23.396;2023-04-27T05:42:20;94973.19;;;9.35;58.75
8059;BME280;4072;42.668;23.396;2023-04-27T05:44:48;94999.91;;;9.85;57.55
8059;BME280;4072;42.668;23.396;2023-04-27T05:47:16;94982.72;;;9.70;57.20
8059;BME280;4072;42.668;23.396;2023-04-27T05:49:49;94930.53;;;9.21;57.53
8059;BME280;4072;42.668;23.396;2023-04-27T05:52:18;95000.81;;;9.61;57.82
8059;BME280;4072;42.668;23.396;2023-04-27T05:54:46;94998.00;;;9.64;57.73
8059;BME280;4072;42.668;23.396;2023-04-27T05:57:15;94994.25;;;9.40;57.96
8059;BME280;4072;42.668;23.396;2023-04-27T05:59:44;95003.59;;;9.48;57.83
8059;BME280;4072;42.668;23.396;2023-04-27T06:02:12;94997.50;;;9.35;58.22
8059;BME280;4072;42.668;23.396;2023-04-27T06:04:41;94995.13;;;9.37;58.28
8059;BME280;4072;42.668;23.396;2023-04-27T06:07:11;94996.31;;;9.36;58.18
8059;BME280;4072;42.668;23.396;2023-04-27T06:09:41;94964.06;;;9.11;58.88
8059;BME280;4072;42.668;23.396;2023-04-27T06:12:09;95007.69;;;9.83;58.42
8059;BME280;4072;42.668;23.396;2023-04-27T06:14:37;95001.75;;;10.19;57.35
8059;BME280;4072;42.668;23.396;2023-04-27T06:17:07;95001.03;;;10.36;56.20
8059;BME280;4072;42.668;23.396;2023-04-27T06:19:35;94997.13;;;10.37;55.55
8059;BME280;4072;42.668;23.396;2023-04-27T06:22:03;95012.47;;;10.40;55.88
8059;BME280;4072;42.668;23.396;2023-04-27T06:24:31;94999.66;;;10.32;55.95
8059;BME280;4072;42.668;23.396;2023-04-27T06:27:02;95001.56;;;10.62;56.18
8059;BME280;4072;42.668;23.396;2023-04-27T06:29:30;94981.25;;;10.48;55.52
8059;BME280;4072;42.668;23.396;2023-04-27T06:31:59;95003.50;;;10.61;55.41
8059;BME280;4072;42.668;23.396;2023-04-27T06:34:29;95002.19;;;10.93;54.68
8059;BME280;4072;42.668;23.396;2023-04-27T06:36:57;94989.75;;;11.13;54.28
8059;BME280;4072;42.668;23.396;2023-04-27T06:39:25;94993.66;;;11.03;54.29
8059;BME280;4072;42.668;23.396;2023-04-27T06:41:53;95003.28;;;11.13;54.40
8059;BME280;4072;42.668;23.396;2023-04-27T06:44:23;94990.03;;;11.15;54.20
8059;BME280;4072;42.668;23.396;2023-04-27T06:46:51;94992.75;;;11.06;54.34
8059;BME280;4072;42.668;23.396;2023-04-27T06:49:19;95004.19;;;11.10;54.08
8059;BME280;4072;42.668;23.396;2023-04-27T06:51:48;94993.19;;;11.50;53.37
8059;BME280;4072;42.668;23.396;2023-04-27T06:54:19;94995.22;;;11.91;52.91
8059;BME280;4072;42.668;23.396;2023-04-27T06:56:47;94993.59;;;12.26;50.73
8059;BME280;4072;42.668;23.396;2023-04-27T06:59:15;94991.50;;;12.54;50.89
8059;BME280;4072;42.668;23.396;2023-04-27T07:01:43;94999.84;;;12.74;49.57
8059;BME280;4072;42.668;23.396;2023-04-27T07:04:11;94992.38;;;12.27;49.68
8059;BME280;4072;42.668;23.396;2023-04-27T07:06:43;94989.00;;;12.09;49.80
8059;BME280;4072;42.668;23.396;2023-04-27T07:09:12;94994.25;;;12.12;49.49
8059;BME280;4072;42.668;23.396;2023-04-27T07:11:52;94996.44;;;12.32;49.79
8059;BME280;4072;42.668;23.396;2023-04-27T07:14:21;94948.78;;;12.40;48.68
8059;BME280;4072;42.668;23.396;2023-04-27T07:16:50;94985.38;;;13.00;47.27
8059;BME280;4072;42.668;23.396;2023-04-27T07:19:18;94985.41;;;13.15;46.11
8059;BME280;4072;42.668;23.396;2023-04-27T07:21:48;94988.84;;;13.01;46.57
8059;BME280;4072;42.668;23.396;2023-04-27T07:24:17;94938.06;;;12.45;48.15
8059;BME280;4072;42.668;23.396;2023-04-27T07:26:47;94978.66;;;12.31;47.92
8059;BME280;4072;42.668;23.396;2023-04-27T07:29:15;94975.66;;;12.29;47.12
8059;BME280;4072;42.668;23.396;2023-04-27T07:31:53;94981.06;;;12.29;47.71
8059;BME280;4072;42.668;23.396;2023-04-27T07:34:21;94948.31;;;12.41;46.44
8059;BME280;4072;42.668;23.396;2023-04-27T07:36:50;94978.31;;;12.70;46.71
8059;BME280;4072;42.668;23.396;2023-04-27T07:39:23;94977.13;;;12.62;46.55
8059;BME280;4072;42.668;23.396;2023-04-27T07:41:52;94982.78;;;12.73;46.19
8059;BME280;4072;42.668;23.396;2023-04-27T07:44:21;94979.09;;;13.47;45.56
8059;BME280;4072;42.668;23.396;2023-04-27T07:46:50;94974.81;;;13.84;44.93
8059;BME280;4072;42.668;23.396;2023-04-27T07:49:19;94979.41;;;13.63;44.14
8059;BME280;4072;42.668;23.396;2023-04-27T07:51:47;94981.25;;;13.43;43.73
8059;BME280;4072;42.668;23.396;2023-04-27T07:54:15;94983.91;;;13.14;44.67
8059;BME280;4072;42.668;23.396;2023-04-27T07:56:45;94969.72;;;13.48;43.81
8059;BME280;4072;42.668;23.396;2023-04-27T07:59:13;94975.44;;;13.35;43.55
8059;BME280;4072;42.668;23.396;2023-04-27T08:01:42;94986.19;;;13.30;44.44
8059;BME280;4072;42.668;23.396;2023-04-27T08:04:11;94972.16;;;13.46;44.01
8059;BME280;4072;42.668;23.396;2023-04-27T08:06:40;94945.47;;;13.44;42.68
8059;BME280;4072;42.668;23.396;2023-04-27T08:09:09;94982.78;;;13.73;42.86
8059;BME280;4072;42.668;23.396;2023-04-27T08:11:37;94953.97;;;13.81;42.57
8059;BME280;4072;42.668;23.396;2023-04-27T08:14:07;94988.31;;;13.64;43.15
8059;BME280;4072;42.668;23.396;2023-04-27T08:16:39;94977.22;;;13.38;43.11
8059;BME280;4072;42.668;23.396;2023-04-27T08:19:08;94975.75;;;12.90;43.59
8059;BME280;4072;42.668;23.396;2023-04-27T08:21:37;94990.84;;;12.91;45.05
8059;BME280;4072;42.668;23.396;2023-04-27T08:24:06;94972.69;;;12.74;44.80
8059;BME280;4072;42.668;23.396;2023-04-27T08:26:34;94948.94;;;12.36;45.51
8059;BME280;4072;42.668;23.396;2023-04-27T08:29:03;94974.81;;;12.93;44.77
8059;BME280;4072;42.668;23.396;2023-04-27T08:31:52;94972.44;;;12.72;44.52
8059;BME280;4072;42.668;23.396;2023-04-27T08:34:22;94980.94;;;12.79;44.03
8059;BME280;4072;42.668;23.396;2023-04-27T08:36:50;94980.41;;;12.99;44.67
8059;BME280;4072;42.668;23.396;2023-04-27T08:39:19;94988.63;;;12.81;44.56
8059;BME280;4072;42.668;23.396;2023-04-27T08:41:48;94990.84;;;12.91;45.04
8059;BME280;4072;42.668;23.396;2023-04-27T08:44:16;94927.03;;;12.49;45.09
8059;BME280;4072;42.668;23.396;2023-04-27T08:46:44;94984.59;;;13.00;44.85
8059;BME280;4072;42.668;23.396;2023-04-27T08:49:14;94978.75;;;12.92;44.22
8059;BME280;4072;42.668;23.396;2023-04-27T08:51:43;94983.41;;;13.39;44.62
8059;BME280;4072;42.668;23.396;2023-04-27T08:54:11;94976.19;;;13.79;43.73
8059;BME280;4072;42.668;23.396;2023-04-27T08:56:39;94978.72;;;14.12;43.14
8059;BME280;4072;42.668;23.396;2023-04-27T08:59:13;94976.69;;;14.07;42.41
8059;BME280;4072;42.668;23.396;2023-04-27T09:01:43;94962.81;;;13.76;42.72
8059;BME280;4072;42.668;23.396;2023-04-27T09:04:14;94987.19;;;12.94;44.47
8059;BME280;4072;42.668;23.396;2023-04-27T09:06:44;94977.19;;;13.24;44.21
8059;BME280;4072;42.668;23.396;2023-04-27T09:09:20;94985.84;;;13.37;43.58
8059;BME280;4072;42.668;23.396;2023-04-27T09:11:49;94964.41;;;13.68;43.64
8059;BME280;4072;42.668;23.396;2023-04-27T09:14:19;94974.13;;;14.18;43.32
8059;BME280;4072;42.668;23.396;2023-04-27T09:16:53;94978.34;;;14.33;42.58
8059;BME280;4072;42.668;23.396;2023-04-27T09:19:25;94967.47;;;14.19;42.00
8059;BME280;4072;42.668;23.396;2023-04-27T09:22:04;94958.31;;;13.87;42.76
8059;BME280;4072;42.668;23.396;2023-04-27T09:24:32;94970.97;;;13.90;43.56
8059;BME280;4072;42.668;23.396;2023-04-27T09:27:01;94960.38;;;13.78;42.32
8059;BME280;4072;42.668;23.396;2023-04-27T09:29:34;94955.69;;;13.93;42.93
8059;BME280;4072;42.668;23.396;2023-04-27T09:32:13;94967.88;;;13.83;42.45
8059;BME280;4072;42.668;23.396;2023-04-27T09:34:44;94964.50;;;13.73;41.85
8059;BME280;4072;42.668;23.396;2023-04-27T09:37:13;94902.50;;;13.19;43.02
8059;BME280;4072;42.668;23.396;2023-04-27T09:39:42;94953.44;;;13.62;43.14
8059;BME280;4072;42.668;23.396;2023-04-27T09:42:11;94950.13;;;13.29;43.81
8059;BME280;4072;42.668;23.396;2023-04-27T09:44:41;94955.72;;;12.88;43.50
8059;BME280;4072;42.668;23.396;2023-04-27T09:47:09;94946.81;;;13.11;44.50
8059;BME280;4072;42.668;23.396;2023-04-27T09:49:37;94938.63;;;13.63;43.75
8059;BME280;4072;42.668;23.396;2023-04-27T09:52:09;94919.44;;;14.16;42.95
8059;BME280;4072;42.668;23.396;2023-04-27T09:54:37;94928.66;;;14.53;41.48
8059;BME280;4072;42.668;23.396;2023-04-27T09:57:13;94931.25;;;14.82;40.48
8059;BME280;4072;42.668;23.396;2023-04-27T09:59:54;94929.88;;;14.92;39.95
8059;BME280;4072;42.668;23.396;2023-04-27T10:02:27;94929.38;;;14.53;40.74
8059;BME280;4072;42.668;23.396;2023-04-27T10:05:20;94931.84;;;14.17;41.15
8059;BME280;4072;42.668;23.396;2023-04-27T10:07:53;94938.22;;;14.14;41.47
8059;BME280;4072;42.668;23.396;2023-04-27T10:10:22;94941.19;;;14.16;41.40
8059;BME280;4072;42.668;23.396;2023-04-27T10:12:57;94936.53;;;14.31;41.74
8059;BME280;4072;42.668;23.396;2023-04-27T10:15:28;94940.19;;;13.99;41.86
8059;BME280;4072;42.668;23.396;2023-04-27T10:18:02;94926.19;;;14.06;40.89
8059;BME280;4072;42.668;23.396;2023-04-27T10:20:34;94945.34;;;14.26;41.48
8059;BME280;4072;42.668;23.396;2023-04-27T10:23:04;94938.72;;;14.47;40.85
8059;BME280;4072;42.668;23.396;2023-04-27T10:25:37;94934.22;;;13.51;41.43
8059;BME280;4072;42.668;23.396;2023-04-27T10:28:06;94848.16;;;12.76;42.88
8059;BME280;4072;42.668;23.396;2023-04-27T10:30:35;94938.25;;;13.56;42.40
8059;BME280;4072;42.668;23.396;2023-04-27T10:33:06;94924.00;;;13.61;42.57
8059;BME280;4072;42.668;23.396;2023-04-27T10:35:37;94930.84;;;13.56;43.24
8059;BME280;4072;42.668;23.396;2023-04-27T10:38:09;94928.88;;;13.86;42.75
8059;BME280;4072;42.668;23.396;2023-04-27T10:40:44;94926.59;;;13.99;42.33
8059;BME280;4072;42.668;23.396;2023-04-27T10:43:13;94933.91;;;13.35;41.52
8059;BME280;4072;42.668;23.396;2023-04-27T10:45:43;94926.84;;;13.14;42.23
8059;BME280;4072;42.668;23.396;2023-04-27T10:48:12;94927.19;;;12.92;42.13
8059;BME280;4072;42.668;23.396;2023-04-27T10:50:42;94920.03;;;13.04;42.86
8059;BME280;4072;42.668;23.396;2023-04-27T10:53:12;94923.22;;;13.17;42.93
8059;BME280;4072;42.668;23.396;2023-04-27T10:55:40;94907.75;;;13.08;42.96
8059;BME280;4072;42.668;23.396;2023-04-27T10:58:10;94935.81;;;13.29;43.03
8059;BME280;4072;42.668;23.396;2023-04-27T11:00:39;94934.31;;;13.42;41.19
8059;BME280;4072;42.668;23.396;2023-04-27T11:03:14;94873.22;;;13.38;43.13
8059;BME280;4072;42.668;23.396;2023-04-27T11:05:44;94912.16;;;13.93;41.02
8059;BME280;4072;42.668;23.396;2023-04-27T11:08:16;94915.72;;;13.99;40.33
8059;BME280;4072;42.668;23.396;2023-04-27T11:10:45;94914.19;;;14.12;40.63
8059;BME280;4072;42.668;23.396;2023-04-27T11:13:18;94915.72;;;13.99;40.91
8059;BME280;4072;42.668;23.396;2023-04-27T11:15:48;94924.56;;;13.65;40.11
8059;BME280;4072;42.668;23.396;2023-04-27T11:18:18;94923.22;;;13.17;41.74
8059;BME280;4072;42.668;23.396;2023-04-27T11:20:47;94918.16;;;13.10;41.31
8059;BME280;4072;42.668;23.396;2023-04-27T11:23:26;94860.75;;;12.64;41.38
8059;BME280;4072;42.668;23.396;2023-04-27T11:25:55;94930.00;;;13.36;41.47
8059;BME280;4072;42.668;23.396;2023-04-27T11:28:24;94920.81;;;13.48;40.67
8059;BME280;4072;42.668;23.396;2023-04-27T11:30:56;94930.47;;;12.96;41.93
8059;BME280;4072;42.668;23.396;2023-04-27T11:33:25;94929.44;;;13.32;41.80
8059;BME280;4072;42.668;23.396;2023-04-27T11:35:54;94927.19;;;13.74;41.08
8059;BME280;4072;42.668;23.396;2023-04-27T11:38:22;94934.81;;;14.19;40.72
8059;BME280;4072;42.668;23.396;2023-04-27T11:41:03;94932.88;;;14.54;39.10
8059;BME280;4072;42.668;23.396;2023-04-27T11:43:33;94934.69;;;14.42;38.97
8059;BME280;4072;42.668;23.396;2023-04-27T11:46:02;94939.34;;;14.22;39.08
8059;BME280;4072;42.668;23.396;2023-04-27T11:48:31;94913.09;;;14.04;39.48
8059;BME280;4072;42.668;23.396;2023-04-27T11:50:59;94931.84;;;13.88;39.51
8059;BME280;4072;42.668;23.396;2023-04-27T11:53:28;94938.22;;;13.99;40.72
8059;BME280;4072;42.668;23.396;2023-04-27T11:56:02;94944.00;;;14.36;39.99
8059;BME280;4072;42.668;23.396;2023-04-27T11:58:32;94945.97;;;14.70;38.67
8059;BME280;4072;42.668;23.396;2023-04-27T12:01:02;94935.53;;;14.89;38.18
8059;BME280;4072;42.668;23.396;2023-04-27T12:03:31;94853.78;;;14.23;38.38
8059;BME280;4072;42.668;23.396;2023-04-27T12:06:01;94948.59;;;14.85;38.10
8059;BME280;4072;42.668;23.396;2023-04-27T12:08:49;94942.34;;;14.58;38.64
8059;BME280;4072;42.668;23.396;2023-04-27T12:11:19;94941.19;;;14.85;38.36
8059;BME280;4072;42.668;23.396;2023-04-27T12:13:47;94903.88;;;14.71;38.64
8059;BME280;4072;42.668;23.396;2023-04-27T12:16:15;94942.09;;;14.97;38.47
8059;BME280;4072;42.668;23.396;2023-04-27T12:18:43;94936.16;;;14.98;38.55
8059;BME280;4072;42.668;23.396;2023-04-27T12:21:14;94947.59;;;14.82;37.78
8059;BME280;4072;42.668;23.396;2023-04-27T12:23:43;94940.25;;;14.88;38.11
8059;BME280;4072;42.668;23.396;2023-04-27T12:26:12;94942.69;;;14.86;37.77
8059;BME280;4072;42.668;23.396;2023-04-27T12:28:42;94948.34;;;14.28;38.47
8059;BME280;4072;42.668;23.396;2023-04-27T12:31:13;94947.63;;;13.84;39.08
8059;BME280;4072;42.668;23.396;2023-04-27T12:33:42;94934.03;;;13.55;39.41
8059;BME280;4072;42.668;23.396;2023-04-27T12:36:11;94953.78;;;13.99;38.58
8059;BME280;4072;42.668;23.396;2023-04-27T12:38:39;94936.91;;;14.24;38.40
8059;BME280;4072;42.668;23.396;2023-04-27T12:41:08;94940.59;;;14.41;38.22
8059;BME280;4072;42.668;23.396;2023-04-27T12:43:36;94951.06;;;14.62;38.01
8059;BME280;4072;42.668;23.396;2023-04-27T12:46:08;94944.31;;;14.78;37.86
8059;BME280;4072;42.668;23.396;2023-04-27T12:48:37;94955.59;;;14.51;38.46
8059;BME280;4072;42.668;23.396;2023-04-27T12:51:06;94950.78;;;14.26;38.81
8059;BME280;4072;42.668;23.396;2023-04-27T12:53:34;94926.28;;;13.62;39.30
8059;BME280;4072;42.668;23.396;2023-04-27T12:56:04;94954.66;;;13.76;39.44
8059;BME280;4072;42.668;23.396;2023-04-27T12:58:32;94942.34;;;13.95;39.57
8059;BME280;4072;42.668;23.396;2023-04-27T13:01:00;94938.44;;;13.96;39.32
8059;BME280;4072;42.668;23.396;2023-04-27T13:03:31;94930.38;;;13.87;40.31
8059;BME280;4072;42.668;23.396;2023-04-27T13:05:59;94931.84;;;13.88;40.14
8059;BME280;4072;42.668;23.396;2023-04-27T13:08:28;94937.22;;;13.82;39.81
8059;BME280;4072;42.668;23.396;2023-04-27T13:10:56;94923.34;;;13.80;40.53
8059;BME280;4072;42.668;23.396;2023-04-27T13:13:25;94942.72;;;14.17;40.17
8059;BME280;4072;42.668;23.396;2023-04-27T13:15:53;94928.75;;;14.44;39.81
8059;BME280;4072;42.668;23.396;2023-04-27T13:18:24;94956.44;;;14.22;38.99
8059;BME280;4072;42.668;23.396;2023-04-27T13:20:56;94893.84;;;13.44;39.69
8059;BME280;4072;42.668;23.396;2023-04-27T13:23:24;94926.03;;;13.95;40.26
8059;BME280;4072;42.668;23.396;2023-04-27T13:25:53;94919.47;;;14.01;39.78
8059;BME280;4072;42.668;23.396;2023-04-27T13:28:22;94787.97;;;13.21;39.42